sensor_id;sensor_type;location;lat;lon;timestamp;temperature;humidity
1538;DHT22;12022;52.266;10.522;2022-12-26T00:00:31;12.60;99.90
1538;DHT22;12022;52.266;10.522;2022-12-26T00:02:59;12.50;99.90
1538;DHT22;12022;52.266;10.522;2022-12-26T00:05:26;12.30;99.90
1538;DHT22;12022;52.266;10.522;2022-12-26T00:07:54;12.50;99.90
1538;DHT22;12022;52.266;10.522;2022-12-26T00:10:21;12.50;99.90
1538;DHT22;12022;52.266;10.522;2022-12-26T00:12:48;12.50;99.90
1538;DHT22;12022;52.266;10.522;2022-12-26T00:15:15;12.50;99.90
1538;DHT22;12022;52.266;10.522;2022-12-26T00:17:42;12.50;99.90
1538;DHT22;12022;52.266;10.522;2022-12-26T00:20:09;12.40;99.90
1538;DHT22;12022;52.266;10.522;2022-12-26T00:22:36;12.40;99.90
1538;DHT22;12022;52.266;10.522;2022-12-26T00:25:04;12.40;99.90
1538;DHT22;12022;52.266;10.522;2022-12-26T00:27:31;12.40;99.90
1538;DHT22;12022;52.266;10.522;2022-12-26T00:29:59;12.40;99.90
1538;DHT22;12022;52.266;10.522;2022-12-26T00:32:26;12.50;99.90
1538;DHT22;12022;52.266;10.522;2022-12-26T00:34:53;12.40;99.90
1538;DHT22;12022;52.266;10.522;2022-12-26T00:37:20;12.50;99.90
1538;DHT22;12022;52.266;10.522;2022-12-26T00:39:47;12.50;99.90
1538;DHT22;12022;52.266;10.522;2022-12-26T00:42:14;12.40;99.90
1538;DHT22;12022;52.266;10.522;2022-12-26T00:44:41;12.50;99.90
1538;DHT22;12022;52.266;10.522;2022-12-26T00:47:08;12.40;99.90
1538;DHT22;12022;52.266;10.522;2022-12-26T00:49:36;12.40;99.90
1538;DHT22;12022;52.266;10.522;2022-12-26T00:52:24;12.40;99.90
1538;DHT22;12022;52.266;10.522;2022-12-26T00:54:51;12.30;99.90
1538;DHT22;12022;52.266;10.522;2022-12-26T00:57:18;12.40;99.90
1538;DHT22;12022;52.266;10.522;2022-12-26T00:59:45;12.30;99.90
1538;DHT22;12022;52.266;10.522;2022-12-26T01:02:11;12.30;99.90
1538;DHT22;12022;52.266;10.522;2022-12-26T01:04:57;12.30;99.90
1538;DHT22;12022;52.266;10.522;2022-12-26T01:07:24;12.20;99.90
1538;DHT22;12022;52.266;10.522;2022-12-26T01:09:51;12.30;99.90
1538;DHT22;12022;52.266;10.522;2022-12-26T01:12:18;12.20;99.90
1538;DHT22;12022;52.266;10.522;2022-12-26T01:14:45;12.10;99.90
1538;DHT22;12022;52.266;10.522;2022-12-26T01:17:11;12.10;99.90
1538;DHT22;12022;52.266;10.522;2022-12-26T01:19:38;12.10;99.90
1538;DHT22;12022;52.266;10.522;2022-12-26T01:22:05;12.20;99.90
1538;DHT22;12022;52.266;10.522;2022-12-26T01:24:32;12.10;99.90
1538;DHT22;12022;52.266;10.522;2022-12-26T01:26:59;12.10;99.90
1538;DHT22;12022;52.266;10.522;2022-12-26T01:29:27;12.10;99.90
1538;DHT22;12022;52.266;10.522;2022-12-26T01:31:54;12.10;99.90
1538;DHT22;12022;52.266;10.522;2022-12-26T01:34:21;12.00;99.90
1538;DHT22;12022;52.266;10.522;2022-12-26T01:36:48;12.00;99.90
1538;DHT22;12022;52.266;10.522;2022-12-26T01:39:15;12.10;99.90
1538;DHT22;12022;52.266;10.522;2022-12-26T01:41:42;12.10;99.90
1538;DHT22;12022;52.266;10.522;2022-12-26T01:47:13;12.00;99.90
1538;DHT22;12022;52.266;10.522;2022-12-26T01:49:42;12.00;99.90
1538;DHT22;12022;52.266;10.522;2022-12-26T01:52:15;12.00;99.90
1538;DHT22;12022;52.266;10.522;2022-12-26T01:54:46;11.90;99.90
1538;DHT22;12022;52.266;10.522;2022-12-26T01:57:19;12.00;99.90
1538;DHT22;12022;52.266;10.522;2022-12-26T01:59:49;11.90;99.90
1538;DHT22;12022;52.266;10.522;2022-12-26T02:02:19;12.00;99.90
1538;DHT22;12022;52.266;10.522;2022-12-26T02:04:48;11.90;99.90
1538;DHT22;12022;52.266;10.522;2022-12-26T02:07:38;12.00;99.90
1538;DHT22;12022;52.266;10.522;2022-12-26T02:10:08;12.10;99.90
1538;DHT22;12022;52.266;10.522;2022-12-26T02:12:36;12.00;99.90
1538;DHT22;12022;52.266;10.522;2022-12-26T02:15:12;11.90;99.90
1538;DHT22;12022;52.266;10.522;2022-12-26T02:17:40;12.00;99.90
1538;DHT22;12022;52.266;10.522;2022-12-26T02:39:30;11.70;99.90
1538;DHT22;12022;52.266;10.522;2022-12-26T02:45:04;11.70;99.90
1538;DHT22;12022;52.266;10.522;2022-12-26T02:56:55;11.60;99.90
1538;DHT22;12022;52.266;10.522;2022-12-26T02:59:58;11.60;99.90
1538;DHT22;12022;52.266;10.522;2022-12-26T03:03:18;11.60;99.90
1538;DHT22;12022;52.266;10.522;2022-12-26T03:06:12;11.60;99.90
1538;DHT22;12022;52.266;10.522;2022-12-26T03:11:50;11.50;99.90
1538;DHT22;12022;52.266;10.522;2022-12-26T03:14:53;11.50;99.90
1538;DHT22;12022;52.266;10.522;2022-12-26T03:17:40;11.50;99.90
1538;DHT22;12022;52.266;10.522;2022-12-26T03:20:14;11.50;99.90
1538;DHT22;12022;52.266;10.522;2022-12-26T03:25:24;11.60;99.90
1538;DHT22;12022;52.266;10.522;2022-12-26T03:28:11;11.60;99.90
1538;DHT22;12022;52.266;10.522;2022-12-26T03:30:40;11.60;99.90
1538;DHT22;12022;52.266;10.522;2022-12-26T03:33:24;11.70;99.90
1538;DHT22;12022;52.266;10.522;2022-12-26T03:36:28;11.70;99.90
1538;DHT22;12022;52.266;10.522;2022-12-26T03:41:51;11.80;99.90
1538;DHT22;12022;52.266;10.522;2022-12-26T03:44:57;11.80;99.90
1538;DHT22;12022;52.266;10.522;2022-12-26T03:50:52;11.80;99.90
1538;DHT22;12022;52.266;10.522;2022-12-26T03:53:44;11.80;99.90
1538;DHT22;12022;52.266;10.522;2022-12-26T03:56:46;11.80;99.90
1538;DHT22;12022;52.266;10.522;2022-12-26T03:59:49;11.90;99.90
1538;DHT22;12022;52.266;10.522;2022-12-26T04:02:35;11.80;99.90
1538;DHT22;12022;52.266;10.522;2022-12-26T04:05:24;11.80;99.90
1538;DHT22;12022;52.266;10.522;2022-12-26T04:08:24;11.80;99.90
1538;DHT22;12022;52.266;10.522;2022-12-26T04:11:15;11.90;99.90
1538;DHT22;12022;52.266;10.522;2022-12-26T04:14:07;11.80;99.90
1538;DHT22;12022;52.266;10.522;2022-12-26T04:17:00;11.80;99.90
1538;DHT22;12022;52.266;10.522;2022-12-26T04:20:02;11.70;99.90
1538;DHT22;12022;52.266;10.522;2022-12-26T04:22:53;11.60;99.90
1538;DHT22;12022;52.266;10.522;2022-12-26T04:25:53;11.60;99.90
1538;DHT22;12022;52.266;10.522;2022-12-26T04:28:41;11.60;99.90
1538;DHT22;12022;52.266;10.522;2022-12-26T04:31:28;11.50;99.90
1538;DHT22;12022;52.266;10.522;2022-12-26T04:34:23;11.50;99.90
1538;DHT22;12022;52.266;10.522;2022-12-26T04:37:18;11.50;99.90
1538;DHT22;12022;52.266;10.522;2022-12-26T04:40:09;11.50;99.90
1538;DHT22;12022;52.266;10.522;2022-12-26T04:42:55;11.50;99.90
1538;DHT22;12022;52.266;10.522;2022-12-26T04:46:01;11.50;99.90
1538;DHT22;12022;52.266;10.522;2022-12-26T04:48:29;11.50;99.90
1538;DHT22;12022;52.266;10.522;2022-12-26T04:51:14;11.50;99.90
1538;DHT22;12022;52.266;10.522;2022-12-26T04:53:41;11.40;99.90
1538;DHT22;12022;52.266;10.522;2022-12-26T04:56:08;11.30;99.90
1538;DHT22;12022;52.266;10.522;2022-12-26T04:58:36;11.30;99.90
1538;DHT22;12022;52.266;10.522;2022-12-26T05:01:03;11.30;99.90
1538;DHT22;12022;52.266;10.522;2022-12-26T05:03:48;11.20;99.90
1538;DHT22;12022;52.266;10.522;2022-12-26T05:06:34;11.20;99.90
1538;DHT22;12022;52.266;10.522;2022-12-26T05:09:19;11.10;99.90
1538;DHT22;12022;52.266;10.522;2022-12-26T05:12:03;11.10;99.90
1538;DHT22;12022;52.266;10.522;2022-12-26T05:14:30;11.20;99.90
1538;DHT22;12022;52.266;10.522;2022-12-26T05:16:58;11.20;99.90
1538;DHT22;12022;52.266;10.522;2022-12-26T05:19:43;11.30;99.90
1538;DHT22;12022;52.266;10.522;2022-12-26T05:22:31;11.30;99.90
1538;DHT22;12022;52.266;10.522;2022-12-26T05:25:31;11.30;99.90
1538;DHT22;12022;52.266;10.522;2022-12-26T05:28:18;11.30;99.90
1538;DHT22;12022;52.266;10.522;2022-12-26T05:31:04;11.30;99.90
1538;DHT22;12022;52.266;10.522;2022-12-26T05:33:31;11.50;99.90
1538;DHT22;12022;52.266;10.522;2022-12-26T05:36:18;11.50;99.90
1538;DHT22;12022;52.266;10.522;2022-12-26T05:38:46;11.50;99.90
1538;DHT22;12022;52.266;10.522;2022-12-26T05:41:15;11.50;99.90
1538;DHT22;12022;52.266;10.522;2022-12-26T05:43:42;11.50;99.90
1538;DHT22;12022;52.266;10.522;2022-12-26T05:46:09;11.50;99.90
1538;DHT22;12022;52.266;10.522;2022-12-26T05:48:35;11.50;99.90
1538;DHT22;12022;52.266;10.522;2022-12-26T05:51:03;11.60;99.90
1538;DHT22;12022;52.266;10.522;2022-12-26T05:53:30;11.60;99.90
1538;DHT22;12022;52.266;10.522;2022-12-26T05:56:14;11.60;99.90
1538;DHT22;12022;52.266;10.522;2022-12-26T05:58:42;11.70;99.90
1538;DHT22;12022;52.266;10.522;2022-12-26T06:01:15;11.70;99.90
1538;DHT22;12022;52.266;10.522;2022-12-26T06:03:46;11.80;99.90
1538;DHT22;12022;52.266;10.522;2022-12-26T06:06:14;11.80;99.90
1538;DHT22;12022;52.266;10.522;2022-12-26T06:08:42;11.80;99.90
1538;DHT22;12022;52.266;10.522;2022-12-26T06:11:11;11.70;99.90
1538;DHT22;12022;52.266;10.522;2022-12-26T06:13:39;11.70;99.90
1538;DHT22;12022;52.266;10.522;2022-12-26T06:16:09;11.60;99.90
1538;DHT22;12022;52.266;10.522;2022-12-26T06:18:36;11.60;99.90
1538;DHT22;12022;52.266;10.522;2022-12-26T06:21:10;11.60;99.90
1538;DHT22;12022;52.266;10.522;2022-12-26T06:23:39;11.60;99.90
1538;DHT22;12022;52.266;10.522;2022-12-26T06:26:06;11.50;99.90
1538;DHT22;12022;52.266;10.522;2022-12-26T06:28:35;11.50;99.90
1538;DHT22;12022;52.266;10.522;2022-12-26T06:31:05;11.50;99.90
1538;DHT22;12022;52.266;10.522;2022-12-26T06:33:33;11.40;99.90
1538;DHT22;12022;52.266;10.522;2022-12-26T06:36:05;11.50;99.90
1538;DHT22;12022;52.266;10.522;2022-12-26T06:38:33;11.40;99.90
1538;DHT22;12022;52.266;10.522;2022-12-26T06:41:00;11.50;99.90
1538;DHT22;12022;52.266;10.522;2022-12-26T06:43:27;11.50;99.90
1538;DHT22;12022;52.266;10.522;2022-12-26T06:45:55;11.50;99.90
1538;DHT22;12022;52.266;10.522;2022-12-26T06:48:23;11.50;99.90
1538;DHT22;12022;52.266;10.522;2022-12-26T06:50:50;11.50;99.90
1538;DHT22;12022;52.266;10.522;2022-12-26T06:53:17;11.60;99.90
1538;DHT22;12022;52.266;10.522;2022-12-26T06:55:44;11.50;99.90
1538;DHT22;12022;52.266;10.522;2022-12-26T06:58:11;11.50;99.90
1538;DHT22;12022;52.266;10.522;2022-12-26T07:00:38;11.50;99.90
1538;DHT22;12022;52.266;10.522;2022-12-26T07:03:05;11.50;99.90
1538;DHT22;12022;52.266;10.522;2022-12-26T07:05:35;11.50;99.90
1538;DHT22;12022;52.266;10.522;2022-12-26T07:08:02;11.50;99.90
1538;DHT22;12022;52.266;10.522;2022-12-26T07:10:29;11.50;99.90
1538;DHT22;12022;52.266;10.522;2022-12-26T07:12:59;11.50;99.90
1538;DHT22;12022;52.266;10.522;2022-12-26T07:15:26;11.40;99.90
1538;DHT22;12022;52.266;10.522;2022-12-26T07:17:53;11.30;99.90
1538;DHT22;12022;52.266;10.522;2022-12-26T07:20:20;11.30;99.90
1538;DHT22;12022;52.266;10.522;2022-12-26T07:22:47;11.30;99.90
1538;DHT22;12022;52.266;10.522;2022-12-26T07:25:14;11.20;99.90
1538;DHT22;12022;52.266;10.522;2022-12-26T07:27:41;11.20;99.90
1538;DHT22;12022;52.266;10.522;2022-12-26T07:30:08;11.20;99.90
1538;DHT22;12022;52.266;10.522;2022-12-26T07:32:35;11.20;99.90
1538;DHT22;12022;52.266;10.522;2022-12-26T07:35:02;11.20;99.90
1538;DHT22;12022;52.266;10.522;2022-12-26T07:37:29;11.20;99.90
1538;DHT22;12022;52.266;10.522;2022-12-26T07:39:56;11.10;99.90
1538;DHT22;12022;52.266;10.522;2022-12-26T07:42:25;11.10;99.90
1538;DHT22;12022;52.266;10.522;2022-12-26T07:44:52;11.00;99.90
1538;DHT22;12022;52.266;10.522;2022-12-26T07:47:19;11.10;99.90
1538;DHT22;12022;52.266;10.522;2022-12-26T07:49:46;11.00;99.90
1538;DHT22;12022;52.266;10.522;2022-12-26T07:52:13;11.00;99.90
1538;DHT22;12022;52.266;10.522;2022-12-26T07:54:40;11.00;99.90
1538;DHT22;12022;52.266;10.522;2022-12-26T07:57:07;10.90;99.90
1538;DHT22;12022;52.266;10.522;2022-12-26T07:59:54;10.90;99.90
1538;DHT22;12022;52.266;10.522;2022-12-26T08:02:20;10.90;99.90
1538;DHT22;12022;52.266;10.522;2022-12-26T08:04:48;10.90;99.90
1538;DHT22;12022;52.266;10.522;2022-12-26T08:07:14;10.80;99.90
1538;DHT22;12022;52.266;10.522;2022-12-26T08:09:41;10.80;99.90
1538;DHT22;12022;52.266;10.522;2022-12-26T08:12:11;10.80;99.90
1538;DHT22;12022;52.266;10.522;2022-12-26T08:14:39;10.80;99.90
1538;DHT22;12022;52.266;10.522;2022-12-26T08:17:06;10.80;99.90
1538;DHT22;12022;52.266;10.522;2022-12-26T08:19:33;10.90;99.90
1538;DHT22;12022;52.266;10.522;2022-12-26T08:22:00;10.80;99.90
1538;DHT22;12022;52.266;10.522;2022-12-26T08:24:27;10.80;99.90
1538;DHT22;12022;52.266;10.522;2022-12-26T08:26:54;10.80;99.90
1538;DHT22;12022;52.266;10.522;2022-12-26T08:29:21;10.80;99.90
1538;DHT22;12022;52.266;10.522;2022-12-26T08:31:48;10.90;99.90
1538;DHT22;12022;52.266;10.522;2022-12-26T08:34:15;10.80;99.90
1538;DHT22;12022;52.266;10.522;2022-12-26T08:36:42;10.80;99.90
1538;DHT22;12022;52.266;10.522;2022-12-26T08:39:09;10.90;99.90
1538;DHT22;12022;52.266;10.522;2022-12-26T08:41:38;10.90;99.90
1538;DHT22;12022;52.266;10.522;2022-12-26T08:44:09;10.90;99.90
1538;DHT22;12022;52.266;10.522;2022-12-26T08:46:56;10.90;99.90
1538;DHT22;12022;52.266;10.522;2022-12-26T08:49:23;10.90;99.90
1538;DHT22;12022;52.266;10.522;2022-12-26T08:51:51;10.90;99.90
1538;DHT22;12022;52.266;10.522;2022-12-26T08:54:22;11.00;99.90
1538;DHT22;12022;52.266;10.522;2022-12-26T08:56:50;11.00;99.90
1538;DHT22;12022;52.266;10.522;2022-12-26T08:59:20;11.00;99.90
1538;DHT22;12022;52.266;10.522;2022-12-26T09:02:11;11.00;99.90
1538;DHT22;12022;52.266;10.522;2022-12-26T09:04:39;11.00;99.90
1538;DHT22;12022;52.266;10.522;2022-12-26T09:07:07;11.00;99.90
1538;DHT22;12022;52.266;10.522;2022-12-26T09:09:35;11.10;99.90
1538;DHT22;12022;52.266;10.522;2022-12-26T09:12:05;11.00;99.90
1538;DHT22;12022;52.266;10.522;2022-12-26T09:14:34;11.10;99.90
1538;DHT22;12022;52.266;10.522;2022-12-26T09:17:06;11.10;99.90
1538;DHT22;12022;52.266;10.522;2022-12-26T09:19:36;11.10;99.90
1538;DHT22;12022;52.266;10.522;2022-12-26T09:22:08;11.00;99.90
1538;DHT22;12022;52.266;10.522;2022-12-26T09:25:05;11.10;99.90
1538;DHT22;12022;52.266;10.522;2022-12-26T09:27:43;11.10;99.90
1538;DHT22;12022;52.266;10.522;2022-12-26T09:30:25;11.10;99.90
1538;DHT22;12022;52.266;10.522;2022-12-26T09:32:57;11.10;99.90
1538;DHT22;12022;52.266;10.522;2022-12-26T09:35:25;11.10;99.90
1538;DHT22;12022;52.266;10.522;2022-12-26T09:37:54;11.10;99.90
1538;DHT22;12022;52.266;10.522;2022-12-26T09:40:29;11.10;99.90
1538;DHT22;12022;52.266;10.522;2022-12-26T09:43:23;11.20;99.90
1538;DHT22;12022;52.266;10.522;2022-12-26T09:51:59;11.20;99.90
1538;DHT22;12022;52.266;10.522;2022-12-26T09:57:52;11.40;99.90
1538;DHT22;12022;52.266;10.522;2022-12-26T10:03:28;11.60;99.90
1538;DHT22;12022;52.266;10.522;2022-12-26T10:26:39;12.50;99.90
1538;DHT22;12022;52.266;10.522;2022-12-26T10:53:51;12.80;99.90
1538;DHT22;12022;52.266;10.522;2022-12-26T10:56:25;12.80;99.90
1538;DHT22;12022;52.266;10.522;2022-12-26T10:59:01;12.80;99.90
1538;DHT22;12022;52.266;10.522;2022-12-26T11:01:38;12.80;99.90
1538;DHT22;12022;52.266;10.522;2022-12-26T11:04:24;12.90;99.90
1538;DHT22;12022;52.266;10.522;2022-12-26T11:07:21;12.90;99.90
1538;DHT22;12022;52.266;10.522;2022-12-26T11:10:32;12.90;99.90
1538;DHT22;12022;52.266;10.522;2022-12-26T11:13:21;12.90;99.90
1538;DHT22;12022;52.266;10.522;2022-12-26T11:43:32;12.50;99.90
1538;DHT22;12022;52.266;10.522;2022-12-26T11:46:15;12.50;99.90
1538;DHT22;12022;52.266;10.522;2022-12-26T11:48:49;12.40;99.90
1538;DHT22;12022;52.266;10.522;2022-12-26T11:51:45;12.40;99.90
1538;DHT22;12022;52.266;10.522;2022-12-26T11:54:35;12.50;99.90
1538;DHT22;12022;52.266;10.522;2022-12-26T12:38:25;12.90;99.90
1538;DHT22;12022;52.266;10.522;2022-12-26T12:59:19;13.20;99.90
1538;DHT22;12022;52.266;10.522;2022-12-26T13:02:09;13.20;99.90
1538;DHT22;12022;52.266;10.522;2022-12-26T13:05:23;13.20;99.90
1538;DHT22;12022;52.266;10.522;2022-12-26T13:08:11;13.10;99.90
1538;DHT22;12022;52.266;10.522;2022-12-26T13:10:57;13.00;99.90
1538;DHT22;12022;52.266;10.522;2022-12-26T13:13:42;12.90;99.90
1538;DHT22;12022;52.266;10.522;2022-12-26T13:16:28;12.80;99.90
1538;DHT22;12022;52.266;10.522;2022-12-26T13:31:36;12.70;99.90
1538;DHT22;12022;52.266;10.522;2022-12-26T13:34:17;12.70;99.90
1538;DHT22;12022;52.266;10.522;2022-12-26T13:43:20;12.50;99.90
1538;DHT22;12022;52.266;10.522;2022-12-26T13:46:37;12.50;99.90
1538;DHT22;12022;52.266;10.522;2022-12-26T13:49:40;12.40;99.90
1538;DHT22;12022;52.266;10.522;2022-12-26T13:57:42;12.40;99.90
1538;DHT22;12022;52.266;10.522;2022-12-26T14:01:04;12.40;99.90
1538;DHT22;12022;52.266;10.522;2022-12-26T14:09:04;12.40;99.90
1538;DHT22;12022;52.266;10.522;2022-12-26T14:18:17;12.50;99.90
1538;DHT22;12022;52.266;10.522;2022-12-26T14:29:45;12.30;99.90
1538;DHT22;12022;52.266;10.522;2022-12-26T14:38:21;12.40;99.90
1538;DHT22;12022;52.266;10.522;2022-12-26T14:41:04;12.20;99.90
1538;DHT22;12022;52.266;10.522;2022-12-26T14:43:40;12.10;99.90
1538;DHT22;12022;52.266;10.522;2022-12-26T23:26:32;4.60;99.90
